createdAt,value
2019-04-25T00:02:08.402Z,38.80
2019-04-25T00:04:34.572Z,38.80
2019-04-25T00:07:02.589Z,38.80
2019-04-25T00:09:28.758Z,38.70
2019-04-25T00:11:54.910Z,38.80
2019-04-25T00:14:22.445Z,38.70
2019-04-25T00:16:47.280Z,38.60
2019-04-25T00:19:13.457Z,38.70
2019-04-25T00:21:40.925Z,38.90
2019-04-25T00:24:06.582Z,38.70
2019-04-25T00:26:32.751Z,38.70
2019-04-25T00:28:58.922Z,38.70
2019-04-25T00:31:26.091Z,38.70
2019-04-25T00:33:53.123Z,38.80
2019-04-25T00:36:17.512Z,38.60
2019-04-25T00:38:46.259Z,38.70
2019-04-25T00:41:11.535Z,38.60
2019-04-25T00:43:36.855Z,38.60
2019-04-25T00:46:03.047Z,38.60
2019-04-25T00:48:29.212Z,38.60
2019-04-25T00:50:55.416Z,38.70
2019-04-25T00:53:22.352Z,38.50
2019-04-25T00:55:48.662Z,38.50
2019-04-25T00:58:14.725Z,38.50
2019-04-25T01:00:41.587Z,38.40
2019-04-25T01:03:07.092Z,38.50
2019-04-25T01:05:33.281Z,38.60
2019-04-25T01:08:00.153Z,38.40
2019-04-25T01:10:26.318Z,38.40
2019-04-25T01:12:53.226Z,38.40
2019-04-25T01:15:19.445Z,39.00
2019-04-25T01:17:45.601Z,38.40
2019-04-25T01:20:11.769Z,38.40
2019-04-25T01:22:37.915Z,38.40
2019-04-25T01:25:04.081Z,38.40
2019-04-25T01:27:30.246Z,38.40
2019-04-25T01:29:56.462Z,38.30
2019-04-25T01:32:23.755Z,38.30
2019-04-25T01:34:48.804Z,38.20
2019-04-25T01:37:14.985Z,38.10
2019-04-25T01:39:41.149Z,38.20
2019-04-25T01:42:07.336Z,38.20
2019-04-25T01:44:34.050Z,38.20
2019-04-25T01:46:59.718Z,38.20
2019-04-25T01:49:25.875Z,38.20
2019-04-25T01:51:54.013Z,38.10
2019-04-25T01:54:18.245Z,38.10
2019-04-25T01:56:44.447Z,38.20
2019-04-25T01:59:10.593Z,38.20
2019-04-25T02:01:36.760Z,38.10
2019-04-25T02:04:03.536Z,38.10
2019-04-25T02:06:29.145Z,38.10
2019-04-25T02:08:56.238Z,38.10
2019-04-25T02:11:23.945Z,38.10
2019-04-25T02:13:49.286Z,38.20
2019-04-25T02:16:15.447Z,38.20
2019-04-25T02:18:41.611Z,38.30
2019-04-25T02:21:07.796Z,38.20
2019-04-25T02:23:34.174Z,38.50
2019-04-25T02:26:11.762Z,38.00
2019-04-25T02:28:26.391Z,38.10
2019-04-25T02:30:53.645Z,38.20
2019-04-25T02:33:19.506Z,38.00
2019-04-25T02:35:46.677Z,37.90
2019-04-25T02:38:11.897Z,38.30
2019-04-25T02:40:38.050Z,38.10
2019-04-25T02:43:07.925Z,38.00
2019-04-25T02:45:30.418Z,38.00
2019-04-25T02:47:58.104Z,38.00
2019-04-25T02:50:24.596Z,38.50
2019-04-25T02:52:49.018Z,37.90
2019-04-25T02:55:28.019Z,37.80
2019-04-25T02:57:44.707Z,37.80
2019-04-25T03:00:08.796Z,37.90
2019-04-25T03:02:36.773Z,37.90
2019-04-25T03:05:01.345Z,37.90
2019-04-25T03:07:26.996Z,37.70
2019-04-25T03:09:54.735Z,37.70
2019-04-25T03:12:29.069Z,37.80
2019-04-25T03:14:45.553Z,37.70
2019-04-25T03:17:14.011Z,37.70
2019-04-25T03:19:37.917Z,37.70
2019-04-25T03:22:09.170Z,37.70
2019-04-25T03:24:31.057Z,37.70
2019-04-25T03:26:57.225Z,37.70
2019-04-25T03:29:24.766Z,37.80
2019-04-25T03:31:49.600Z,37.90
2019-04-25T03:34:20.290Z,38.00
2019-04-25T03:36:43.708Z,38.10
2019-04-25T03:39:08.761Z,38.20
2019-04-25T03:41:34.393Z,38.20
2019-04-25T03:44:00.574Z,38.10
2019-04-25T03:46:26.733Z,38.10
2019-04-25T03:48:53.979Z,38.00
2019-04-25T03:51:19.105Z,38.00
2019-04-25T03:53:45.281Z,37.90
2019-04-25T03:56:11.440Z,37.90
2019-04-25T03:58:37.618Z,37.80
2019-04-25T04:01:05.941Z,37.90
2019-04-25T04:03:29.978Z,37.80
2019-04-25T04:05:56.906Z,37.80
2019-04-25T04:08:24.296Z,37.70
2019-04-25T04:10:49.244Z,37.70
2019-04-25T04:13:15.882Z,37.70
2019-04-25T04:15:43.330Z,37.60
2019-04-25T04:18:08.594Z,37.60
2019-04-25T04:20:33.997Z,37.50
2019-04-25T04:23:00.149Z,37.50
2019-04-25T04:25:26.346Z,37.50
2019-04-25T04:27:53.786Z,37.50
2019-04-25T04:30:18.719Z,37.60
2019-04-25T04:32:44.867Z,37.50
2019-04-25T04:35:11.045Z,37.50
2019-04-25T04:37:37.218Z,37.50
2019-04-25T04:40:03.642Z,37.50
2019-04-25T04:42:29.605Z,37.50
2019-04-25T04:44:56.520Z,37.30
2019-04-25T04:47:23.507Z,37.40
2019-04-25T04:49:48.867Z,36.90
2019-04-25T04:52:15.850Z,37.20
2019-04-25T04:54:41.220Z,37.10
2019-04-25T04:57:18.701Z,37.00
2019-04-25T04:59:33.849Z,37.10
2019-04-25T05:01:59.845Z,37.00
2019-04-25T05:04:26.003Z,36.90
2019-04-25T05:06:53.623Z,36.70
2019-04-25T05:09:18.378Z,36.70
2019-04-25T05:11:44.547Z,36.80
2019-04-25T05:14:11.734Z,36.90
2019-04-25T05:16:36.912Z,36.80
2019-04-25T05:19:03.746Z,36.80
2019-04-25T05:21:29.301Z,36.80
2019-04-25T05:23:55.489Z,36.90
2019-04-25T05:26:26.821Z,36.80
2019-04-25T05:28:53.309Z,36.50
2019-04-25T05:31:19.284Z,36.30
2019-04-25T05:33:45.419Z,36.50
2019-04-25T05:36:11.614Z,36.50
2019-04-25T05:38:37.778Z,36.40
2019-04-25T05:41:04.070Z,36.30
2019-04-25T05:43:30.142Z,37.00
2019-04-25T05:45:56.305Z,36.30
2019-04-25T05:48:23.584Z,36.30
2019-04-25T05:50:48.659Z,36.20
2019-04-25T05:53:16.169Z,36.00
2019-04-25T05:55:41.028Z,36.20
2019-04-25T05:58:07.190Z,36.20
2019-04-25T06:00:34.040Z,36.10
2019-04-25T06:02:59.557Z,36.10
2019-04-25T06:05:27.308Z,36.10
2019-04-25T06:07:54.172Z,36.10
2019-04-25T06:10:19.485Z,36.30
2019-04-25T06:12:45.088Z,35.90
2019-04-25T06:15:11.248Z,36.00
2019-04-25T06:17:37.425Z,35.80
2019-04-25T06:20:06.011Z,35.70
2019-04-25T06:22:29.798Z,35.80
2019-04-25T06:24:55.964Z,36.40
2019-04-25T06:27:22.484Z,35.60
2019-04-25T06:29:57.679Z,35.80
2019-04-25T06:32:14.564Z,35.70
2019-04-25T06:34:40.735Z,35.40
2019-04-25T06:37:06.897Z,35.60
2019-04-25T06:39:33.967Z,35.60
2019-04-25T06:41:59.249Z,35.30
2019-04-25T06:44:27.169Z,35.30
2019-04-25T06:46:51.590Z,36.20
2019-04-25T06:49:17.768Z,35.30
2019-04-25T06:51:44.057Z,35.30
2019-04-25T06:54:10.157Z,35.40
2019-04-25T06:56:36.311Z,35.40
2019-04-25T06:59:03.494Z,35.40
2019-04-25T07:01:28.949Z,35.40
2019-04-25T07:03:54.899Z,35.60
2019-04-25T07:06:21.069Z,35.40
2019-04-25T07:08:47.232Z,35.60
2019-04-25T07:11:14.147Z,36.00
2019-04-25T07:13:40.322Z,35.60
2019-04-25T07:16:06.495Z,35.70
2019-04-25T07:18:35.775Z,35.70
2019-04-25T07:20:58.886Z,35.70
2019-04-25T07:23:25.476Z,36.10
2019-04-25T07:25:51.242Z,35.80
2019-04-25T07:28:24.350Z,35.40
2019-04-25T07:30:50.121Z,35.40
2019-04-25T07:33:10.572Z,35.60
2019-04-25T07:35:36.732Z,35.40
2019-04-25T07:38:03.999Z,35.40
2019-04-25T07:40:29.650Z,35.80
2019-04-25T07:42:55.300Z,36.30
2019-04-25T07:45:21.466Z,35.80
2019-04-25T07:47:47.645Z,35.80
2019-04-25T07:50:15.320Z,35.80
2019-04-25T07:52:40.005Z,35.70
2019-04-25T07:55:06.157Z,35.60
2019-04-25T07:57:33.523Z,35.70
2019-04-25T07:59:58.503Z,36.20
2019-04-25T08:02:24.661Z,35.60
2019-04-25T08:04:50.818Z,35.70
2019-04-25T08:07:17.403Z,36.70
2019-04-25T08:09:44.287Z,35.60
2019-04-25T08:12:09.752Z,35.60
2019-04-25T08:14:35.927Z,36.40
2019-04-25T08:17:03.629Z,36.90
2019-04-25T08:19:28.715Z,35.60
2019-04-25T08:21:54.488Z,36.80
2019-04-25T08:24:20.636Z,36.60
2019-04-25T08:26:46.793Z,35.60
2019-04-25T08:29:13.290Z,35.40
2019-04-25T08:31:39.382Z,35.40
2019-04-25T08:34:05.334Z,36.00
2019-04-25T08:36:35.498Z,35.40
2019-04-25T08:38:57.673Z,35.70
2019-04-25T08:41:23.961Z,36.30
2019-04-25T08:43:50.041Z,35.30
2019-04-25T08:46:16.997Z,37.50
2019-04-25T08:48:44.396Z,36.70
2019-04-25T08:51:09.353Z,35.50
2019-04-25T08:53:36.606Z,35.60
2019-04-25T08:56:03.811Z,35.40
2019-04-25T08:58:28.665Z,36.50
2019-04-25T09:01:00.733Z,37.10
2019-04-25T09:03:21.034Z,35.90
2019-04-25T09:05:47.200Z,36.80
2019-04-25T09:08:14.213Z,35.90
2019-04-25T09:10:40.158Z,35.60
2019-04-25T09:13:05.950Z,36.30
2019-04-25T09:15:33.720Z,36.90
2019-04-25T09:17:58.316Z,35.80
2019-04-25T09:20:24.464Z,36.60
2019-04-25T09:22:50.621Z,35.90
2019-04-25T09:25:16.788Z,36.10
2019-04-25T09:27:43.780Z,36.20
2019-04-25T09:30:09.144Z,35.80
2019-04-25T09:32:35.680Z,35.60
2019-04-25T09:35:01.526Z,35.60
2019-04-25T09:37:27.685Z,35.90
2019-04-25T09:39:55.830Z,36.00
2019-04-25T09:42:20.043Z,37.00
2019-04-25T09:44:46.659Z,36.70
2019-04-25T09:47:13.623Z,37.10
2019-04-25T09:49:39.122Z,36.70
2019-04-25T09:52:04.813Z,36.00
2019-04-25T09:54:30.976Z,36.10
2019-04-25T09:56:57.158Z,35.90
2019-04-25T09:59:28.045Z,35.80
2019-04-25T10:01:49.494Z,35.80
2019-04-25T10:04:15.662Z,35.80
2019-04-25T10:06:43.489Z,35.80
2019-04-25T10:09:08.007Z,35.70
2019-04-25T10:11:34.158Z,35.90
2019-04-25T10:14:00.305Z,36.30
2019-04-25T10:16:26.460Z,36.20
2019-04-25T10:18:53.314Z,36.50
2019-04-25T10:21:18.818Z,36.30
2019-04-25T10:23:46.471Z,36.50
2019-04-25T10:26:11.175Z,36.30
2019-04-25T10:28:37.332Z,36.30
2019-04-25T10:31:03.701Z,36.20
2019-04-25T10:33:32.924Z,36.30
2019-04-25T10:36:01.207Z,36.10
2019-04-25T10:38:25.308Z,36.20
2019-04-25T10:40:51.464Z,36.10
2019-04-25T10:43:17.637Z,36.10
2019-04-25T10:45:44.755Z,36.00
2019-04-25T10:48:10.011Z,36.10
2019-04-25T10:50:36.164Z,36.00
2019-04-25T10:53:03.925Z,36.00
2019-04-25T10:55:28.521Z,36.20
2019-04-25T10:57:55.087Z,36.50
2019-04-25T11:00:20.957Z,36.50
2019-04-25T11:02:47.507Z,36.30
2019-04-25T11:05:13.713Z,36.20
2019-04-25T11:07:39.747Z,36.20
2019-04-25T11:10:05.756Z,36.20
2019-04-25T11:12:33.658Z,36.10
2019-04-25T11:14:58.109Z,36.10
2019-04-25T11:17:24.354Z,36.20
2019-04-25T11:19:51.184Z,36.20
2019-04-25T11:22:16.661Z,36.70
2019-04-25T11:24:43.724Z,36.30
2019-04-25T11:27:09.046Z,36.30
2019-04-25T11:29:35.196Z,36.80
2019-04-25T11:32:01.365Z,36.30
2019-04-25T11:34:27.537Z,36.20
2019-04-25T11:36:54.696Z,36.30
2019-04-25T11:39:20.690Z,36.20
2019-04-25T11:41:48.212Z,36.30
2019-04-25T11:44:13.862Z,36.40
2019-04-25T11:46:39.418Z,36.20
2019-04-25T11:49:05.480Z,36.30
2019-04-25T11:51:31.633Z,36.20
2019-04-25T11:53:57.809Z,36.20
2019-04-25T11:56:24.260Z,36.40
2019-04-25T11:58:50.917Z,36.20
2019-04-25T12:01:17.075Z,36.30
2019-04-25T12:03:45.343Z,36.20
2019-04-25T12:06:11.246Z,37.00
2019-04-25T12:08:35.620Z,36.20
2019-04-25T12:11:01.821Z,36.40
2019-04-25T12:13:27.972Z,36.30
2019-04-25T12:15:54.836Z,36.30
2019-04-25T12:18:20.359Z,36.20
2019-04-25T12:20:47.333Z,36.20
2019-04-25T12:23:14.264Z,36.20
2019-04-25T12:25:38.989Z,36.30
2019-04-25T12:28:05.706Z,36.30
2019-04-25T12:30:39.501Z,36.20
2019-04-25T12:32:57.586Z,36.20
2019-04-25T12:35:24.213Z,36.20
2019-04-25T12:37:49.985Z,36.20
2019-04-25T12:40:16.141Z,36.20
2019-04-25T12:42:42.301Z,36.20
2019-04-25T12:45:08.454Z,36.20
2019-04-25T12:47:34.625Z,36.20
2019-04-25T12:50:00.802Z,36.20
2019-04-25T12:52:26.975Z,36.20
2019-04-25T12:54:54.028Z,36.30
2019-04-25T12:57:19.358Z,36.30
2019-04-25T12:59:46.349Z,36.30
2019-04-25T13:02:13.251Z,36.30
2019-04-25T13:04:37.943Z,36.30
2019-04-25T13:07:05.341Z,36.40
2019-04-25T13:09:31.063Z,36.20
2019-04-25T13:11:57.230Z,36.30
2019-04-25T13:14:23.373Z,36.40
2019-04-25T13:16:50.311Z,36.40
2019-04-25T13:19:23.734Z,36.50
2019-04-25T13:21:43.443Z,36.30
2019-04-25T13:24:10.461Z,36.40
2019-04-25T13:26:35.794Z,36.40
2019-04-25T13:29:03.707Z,36.40
2019-04-25T13:31:28.139Z,36.40
2019-04-25T13:33:54.334Z,36.40
2019-04-25T13:36:20.492Z,36.40
2019-04-25T13:38:46.630Z,36.40
2019-04-25T13:41:12.790Z,36.40
2019-04-25T13:43:38.975Z,36.40
2019-04-25T13:46:05.127Z,36.40
2019-04-25T13:48:32.277Z,36.30
2019-04-25T13:50:57.477Z,36.40
2019-04-25T13:53:24.667Z,36.40
2019-04-25T13:55:49.846Z,36.30
2019-04-25T13:58:15.997Z,36.30
2019-04-25T14:00:45.088Z,36.30
2019-04-25T14:03:11.296Z,36.30
2019-04-25T14:05:37.460Z,36.30
2019-04-25T14:08:03.640Z,36.30
2019-04-25T14:10:30.086Z,36.30
2019-04-25T14:12:56.006Z,36.30
2019-04-25T14:15:25.078Z,36.30
2019-04-25T14:17:49.130Z,36.30
2019-04-25T14:20:15.296Z,36.30
2019-04-25T14:22:43.122Z,36.40
2019-04-25T14:25:07.660Z,36.40
2019-04-25T14:27:34.086Z,36.20
2019-04-25T14:30:00.028Z,36.30
2019-04-25T14:32:27.503Z,36.20
2019-04-25T14:34:52.410Z,36.30
2019-04-25T14:37:18.608Z,36.30
2019-04-25T14:39:44.953Z,36.30
2019-04-25T14:42:11.138Z,36.20
2019-04-25T14:44:38.069Z,36.30
2019-04-25T14:47:04.230Z,36.30
2019-04-25T14:49:30.611Z,36.30
2019-04-25T14:51:56.601Z,36.30
2019-04-25T14:54:22.951Z,36.20
2019-04-25T14:56:48.971Z,36.20
2019-04-25T14:59:15.153Z,36.20
2019-04-25T15:01:44.866Z,36.20
2019-04-25T15:04:07.535Z,36.30
2019-04-25T15:06:33.724Z,36.20
2019-04-25T15:08:59.915Z,36.20
2019-04-25T15:11:26.948Z,36.20
2019-04-25T15:13:52.278Z,36.20
2019-04-25T15:16:18.469Z,36.20
2019-04-25T15:18:46.930Z,36.90
2019-04-25T15:21:13.580Z,36.20
2019-04-25T15:23:39.753Z,36.20
2019-04-25T15:26:05.927Z,36.20
2019-04-25T15:28:32.081Z,36.20
2019-04-25T15:30:58.248Z,36.20
2019-04-25T15:33:24.413Z,36.20
2019-04-25T15:35:50.585Z,36.20
2019-04-25T15:38:17.512Z,36.20
2019-04-25T15:45:47.078Z,36.10
2019-04-25T15:53:21.307Z,36.30
2019-04-25T15:55:49.399Z,36.30
2019-04-25T16:03:21.978Z,36.20
2019-04-25T16:05:51.203Z,36.20
2019-04-25T16:08:18.963Z,36.30
2019-04-25T16:10:45.996Z,36.20
2019-04-25T16:13:12.442Z,36.20
2019-04-25T16:15:47.129Z,36.20
2019-04-25T16:18:13.565Z,36.10
2019-04-25T16:25:47.102Z,36.20
2019-04-25T16:33:16.922Z,36.20
2019-04-25T16:38:21.179Z,36.20
2019-04-25T16:40:49.300Z,36.20
2019-04-25T16:43:20.890Z,36.20
2019-04-25T16:45:49.840Z,36.20
2019-04-25T16:48:17.258Z,36.20
2019-04-25T16:53:17.542Z,36.20
2019-04-25T16:55:45.400Z,36.20
2019-04-25T17:08:17.513Z,36.20
2019-04-25T17:10:44.096Z,36.30
2019-04-25T17:15:43.719Z,36.30
2019-04-25T17:18:10.199Z,36.20
2019-04-25T17:20:36.962Z,36.20
2019-04-25T17:23:03.490Z,36.20
2019-04-25T17:25:31.273Z,36.30
2019-04-25T17:28:03.829Z,37.00
2019-04-25T17:38:07.858Z,36.20
2019-04-25T17:40:35.539Z,36.30
2019-04-25T17:43:10.964Z,36.30
2019-04-25T17:48:01.214Z,36.30
2019-04-25T17:50:27.817Z,36.40
2019-04-25T17:52:57.108Z,36.30
2019-04-25T17:55:27.107Z,36.30
2019-04-25T17:57:54.516Z,36.40
2019-04-25T18:00:21.955Z,36.50
2019-04-25T18:02:58.369Z,36.30
2019-04-25T18:05:15.142Z,36.30
2019-04-25T18:07:42.524Z,36.30
2019-04-25T18:10:09.163Z,36.30
2019-04-25T18:12:40.055Z,36.40
2019-04-25T18:15:05.678Z,36.50
2019-04-25T18:17:32.135Z,36.40
2019-04-25T18:19:58.976Z,36.40
2019-04-25T18:22:25.409Z,36.40
2019-04-25T18:27:23.754Z,36.40
2019-04-25T18:29:50.362Z,36.40
2019-04-25T18:32:21.597Z,36.50
2019-04-25T18:34:48.926Z,36.60
2019-04-25T18:37:15.265Z,36.50
2019-04-25T18:39:42.020Z,36.50
2019-04-25T18:42:09.510Z,36.50
2019-04-25T18:47:07.931Z,36.50
2019-04-25T18:49:34.644Z,36.60
2019-04-25T18:52:01.170Z,36.70
2019-04-25T18:54:33.049Z,36.70
2019-04-25T18:57:00.332Z,36.80
2019-04-25T18:59:27.747Z,36.70
2019-04-25T19:01:54.218Z,36.80
2019-04-25T19:04:21.041Z,36.80
2019-04-25T19:06:55.193Z,36.80
2019-04-25T19:09:21.215Z,36.90
2019-04-25T19:11:51.346Z,36.80
2019-04-25T19:19:22.008Z,36.80
2019-04-25T19:21:51.972Z,36.90
2019-04-25T19:24:21.270Z,36.90
2019-04-25T19:26:47.943Z,36.90
2019-04-25T19:29:14.226Z,36.90
2019-04-25T19:31:40.908Z,36.80
2019-04-25T19:34:09.709Z,36.80
2019-04-25T19:36:39.134Z,36.90
2019-04-25T19:39:09.127Z,36.80
2019-04-25T19:41:38.963Z,36.80
2019-04-25T19:46:39.076Z,36.80
2019-04-25T19:49:09.224Z,36.80
2019-04-25T19:51:36.592Z,36.80
2019-04-25T19:56:35.026Z,36.80
2019-04-25T19:59:02.725Z,36.80
2019-04-25T20:01:33.198Z,36.80
2019-04-25T20:03:59.742Z,36.80
2019-04-25T20:06:27.151Z,36.80
2019-04-25T20:08:53.781Z,36.80
2019-04-25T20:11:23.357Z,36.80
2019-04-25T20:16:27.227Z,36.80
2019-04-25T20:22:28.171Z,36.90
2019-04-25T20:25:00.054Z,37.10
2019-04-25T20:29:58.769Z,37.10
2019-04-25T20:32:25.275Z,37.00
2019-04-25T20:34:53.615Z,37.00
2019-04-25T20:37:23.132Z,37.00
2019-04-25T20:39:51.910Z,37.00
2019-04-25T20:47:22.543Z,36.90
2019-04-25T20:49:49.191Z,36.90
2019-04-25T20:54:51.068Z,37.00
2019-04-25T20:57:18.350Z,37.00
2019-04-25T20:59:44.767Z,37.00
2019-04-25T21:04:45.844Z,37.10
2019-04-25T21:07:15.227Z,37.20
2019-04-25T21:09:44.559Z,37.20
2019-04-25T21:12:13.267Z,37.20
2019-04-25T21:14:42.698Z,37.20
2019-04-25T21:19:48.695Z,37.30
2019-04-25T21:24:45.739Z,37.40
2019-04-25T21:27:12.903Z,37.40
2019-04-25T21:29:46.089Z,37.40
2019-04-25T21:32:15.745Z,37.50
2019-04-25T21:34:44.824Z,37.60
2019-04-25T21:37:11.332Z,37.50
2019-04-25T21:42:15.644Z,37.50
2019-04-25T21:44:45.266Z,37.50
2019-04-25T21:47:11.907Z,37.50
2019-04-25T21:49:39.255Z,38.10
2019-04-25T21:52:08.196Z,37.60
2019-04-25T21:57:08.380Z,37.70
2019-04-25T21:59:35.345Z,37.60
2019-04-25T22:02:02.756Z,37.70
2019-04-25T22:09:35.600Z,37.60
2019-04-25T22:17:06.015Z,37.70
2019-04-25T22:22:05.107Z,37.70
2019-04-25T22:24:33.327Z,37.90
2019-04-25T22:29:31.913Z,37.90
2019-04-25T22:31:59.808Z,38.00
2019-04-25T22:34:26.213Z,37.90
2019-04-25T22:36:53.425Z,37.90
2019-04-25T22:39:20.754Z,38.00
2019-04-25T22:46:52.322Z,38.00
2019-04-25T22:49:23.357Z,37.90
2019-04-25T22:51:51.986Z,37.90
2019-04-25T22:56:51.425Z,38.00
2019-04-25T22:59:19.078Z,38.00
